createdAt,value
2019-05-15T00:03:13.304Z,12.90
2019-05-15T00:06:08.985Z,12.90
2019-05-15T00:12:00.294Z,12.90
2019-05-15T00:14:29.831Z,12.80
2019-05-15T00:17:00.973Z,12.70
2019-05-15T00:19:33.004Z,12.60
2019-05-15T00:22:03.753Z,12.60
2019-05-15T00:24:33.219Z,12.60
2019-05-15T00:27:02.688Z,12.60
2019-05-15T00:29:38.344Z,12.50
2019-05-15T00:32:09.185Z,12.50
2019-05-15T00:34:38.882Z,12.40
2019-05-15T00:37:09.448Z,12.40
2019-05-15T00:39:44.240Z,12.40
2019-05-15T00:42:14.818Z,12.40
2019-05-15T00:44:44.247Z,12.30
2019-05-15T00:47:15.478Z,12.30
2019-05-15T00:49:48.824Z,12.40
2019-05-15T00:52:19.728Z,12.40
2019-05-15T00:54:49.295Z,12.50
2019-05-15T00:57:19.200Z,12.50
2019-05-15T00:59:49.714Z,12.40
2019-05-15T01:02:23.393Z,12.50
2019-05-15T01:04:52.814Z,12.60
2019-05-15T01:07:22.318Z,12.60
2019-05-15T01:09:51.801Z,12.40
2019-05-15T01:12:23.686Z,12.30
2019-05-15T01:14:53.194Z,12.10
2019-05-15T01:17:22.721Z,12.20
2019-05-15T01:19:52.673Z,12.10
2019-05-15T01:22:23.500Z,12.10
2019-05-15T01:24:53.009Z,12.00
2019-05-15T01:27:23.498Z,12.10
2019-05-15T01:29:52.973Z,12.00
2019-05-15T01:32:29.004Z,12.00
2019-05-15T01:34:59.260Z,12.00
2019-05-15T01:37:28.759Z,11.90
2019-05-15T01:39:59.825Z,11.90
2019-05-15T01:42:29.896Z,11.90
2019-05-15T01:44:59.433Z,11.90
2019-05-15T01:47:28.972Z,11.90
2019-05-15T01:49:58.477Z,11.70
2019-05-15T01:52:30.542Z,11.60
2019-05-15T01:55:03.002Z,11.60
2019-05-15T01:57:32.648Z,11.70
2019-05-15T02:00:02.281Z,11.90
2019-05-15T02:02:34.822Z,11.80
2019-05-15T02:05:08.362Z,11.60
2019-05-15T02:07:39.200Z,11.50
2019-05-15T02:10:10.014Z,11.30
2019-05-15T02:12:39.437Z,11.30
2019-05-15T02:15:14.127Z,11.30
2019-05-15T02:17:48.083Z,11.30
2019-05-15T02:20:18.738Z,11.30
2019-05-15T02:22:49.570Z,11.40
2019-05-15T02:25:19.033Z,11.30
2019-05-15T02:27:49.872Z,11.30
2019-05-15T02:30:28.433Z,11.20
2019-05-15T02:32:53.848Z,11.20
2019-05-15T02:35:25.121Z,11.10
2019-05-15T02:37:59.549Z,11.10
2019-05-15T02:40:29.464Z,11.20
2019-05-15T02:42:59.229Z,11.20
2019-05-15T02:45:30.086Z,11.10
2019-05-15T02:47:59.887Z,11.00
2019-05-15T02:50:29.429Z,11.00
2019-05-15T02:53:00.587Z,10.90
2019-05-15T02:55:29.977Z,10.90
2019-05-15T02:57:59.589Z,10.90
2019-05-15T03:00:41.674Z,10.80
2019-05-15T03:03:02.177Z,11.00
2019-05-15T03:05:35.170Z,10.80
2019-05-15T03:11:40.832Z,10.80
2019-05-15T03:20:29.851Z,10.70
2019-05-15T03:22:59.726Z,10.60
2019-05-15T03:25:34.308Z,10.60
2019-05-15T03:28:10.091Z,10.50
2019-05-15T03:31:06.513Z,10.50
2019-05-15T03:33:17.323Z,10.60
2019-05-15T03:35:43.057Z,10.60
2019-05-15T03:38:11.211Z,10.60
2019-05-15T03:40:42.196Z,10.50
2019-05-15T03:43:11.761Z,10.40
2019-05-15T03:45:45.002Z,10.40
2019-05-15T03:48:20.027Z,10.40
2019-05-15T03:50:49.810Z,10.50
2019-05-15T03:53:19.742Z,10.40
2019-05-15T03:55:49.365Z,10.40
2019-05-15T03:58:21.298Z,10.50
2019-05-15T04:00:50.147Z,10.50
2019-05-15T04:03:20.428Z,10.40
2019-05-15T04:05:52.044Z,10.40
2019-05-15T04:08:22.592Z,10.30
2019-05-15T04:10:52.998Z,10.20
2019-05-15T04:13:24.429Z,10.20
2019-05-15T04:15:55.406Z,10.20
2019-05-15T04:18:29.100Z,10.30
2019-05-15T04:21:00.584Z,10.30
2019-05-15T04:23:31.895Z,10.30
2019-05-15T04:26:03.443Z,10.40
2019-05-15T04:28:35.155Z,10.40
2019-05-15T04:31:04.525Z,10.30
2019-05-15T04:33:34.011Z,10.20
2019-05-15T04:36:04.800Z,10.20
2019-05-15T04:38:34.375Z,10.20
2019-05-15T04:41:03.935Z,10.10
2019-05-15T04:43:41.351Z,10.20
2019-05-15T04:46:09.831Z,10.30
2019-05-15T04:48:40.497Z,10.30
2019-05-15T04:51:10.141Z,10.20
2019-05-15T04:53:40.044Z,10.20
2019-05-15T04:56:09.864Z,10.20
2019-05-15T04:58:39.946Z,10.30
2019-05-15T05:01:09.767Z,10.30
2019-05-15T05:03:39.867Z,10.30
2019-05-15T05:06:10.120Z,10.40
2019-05-15T05:08:41.111Z,10.40
2019-05-15T05:11:11.836Z,10.60
2019-05-15T05:13:43.321Z,10.60
2019-05-15T05:16:13.775Z,10.70
2019-05-15T05:18:48.591Z,10.80
2019-05-15T05:21:18.390Z,10.90
2019-05-15T05:23:48.484Z,10.80
2019-05-15T05:26:18.971Z,10.70
2019-05-15T05:28:49.089Z,10.60
2019-05-15T05:31:19.220Z,10.60
2019-05-15T05:33:48.867Z,10.60
2019-05-15T05:36:20.394Z,10.60
2019-05-15T05:38:49.849Z,10.60
2019-05-15T05:41:20.245Z,10.70
2019-05-15T05:43:49.676Z,10.80
2019-05-15T05:46:20.433Z,10.70
2019-05-15T05:48:49.876Z,10.80
2019-05-15T05:51:19.509Z,10.90
2019-05-15T05:53:48.982Z,11.00
2019-05-15T05:56:18.510Z,11.10
2019-05-15T05:58:49.154Z,11.10
2019-05-15T06:01:20.729Z,11.20
2019-05-15T06:03:50.218Z,11.30
2019-05-15T06:06:21.036Z,11.30
2019-05-15T06:08:51.462Z,11.30
2019-05-15T06:11:20.899Z,11.60
2019-05-15T06:13:52.578Z,11.50
2019-05-15T06:16:28.357Z,11.70
2019-05-15T06:18:58.941Z,11.90
2019-05-15T06:21:28.636Z,12.00
2019-05-15T06:24:04.856Z,12.00
2019-05-15T06:26:30.197Z,12.00
2019-05-15T06:29:00.658Z,12.10
2019-05-15T06:31:30.045Z,12.10
2019-05-15T06:34:00.462Z,12.20
2019-05-15T06:36:29.917Z,12.20
2019-05-15T06:38:59.454Z,12.30
2019-05-15T06:41:28.880Z,12.40
2019-05-15T06:43:59.318Z,12.50
2019-05-15T06:46:29.683Z,12.50
2019-05-15T06:48:59.169Z,12.70
2019-05-15T06:51:28.949Z,12.80
2019-05-15T06:53:58.503Z,13.00
2019-05-15T06:56:28.298Z,13.10
2019-05-15T06:58:58.789Z,13.20
2019-05-15T07:01:29.452Z,13.30
2019-05-15T07:04:00.971Z,13.80
2019-05-15T07:06:31.784Z,13.70
2019-05-15T07:09:02.281Z,13.70
2019-05-15T07:11:33.082Z,13.70
2019-05-15T07:14:03.380Z,13.70
2019-05-15T07:16:32.856Z,13.80
2019-05-15T07:19:02.314Z,14.00
2019-05-15T07:21:34.553Z,14.00
2019-05-15T07:24:05.638Z,14.10
2019-05-15T07:26:35.096Z,14.30
2019-05-15T07:29:07.902Z,14.40
2019-05-15T07:31:38.388Z,14.40
2019-05-15T07:34:08.448Z,14.40
2019-05-15T07:36:39.188Z,14.50
2019-05-15T07:39:09.755Z,14.60
2019-05-15T07:41:39.381Z,14.70
2019-05-15T07:44:08.883Z,14.70
2019-05-15T07:46:39.071Z,14.80
2019-05-15T07:49:09.533Z,14.70
2019-05-15T07:51:39.127Z,14.90
2019-05-15T07:54:09.366Z,15.00
2019-05-15T07:56:38.858Z,14.90
2019-05-15T07:59:09.212Z,15.00
2019-05-15T08:01:38.827Z,15.10
2019-05-15T08:04:24.681Z,15.20
2019-05-15T08:06:40.568Z,15.40
2019-05-15T08:09:10.125Z,15.40
2019-05-15T08:11:41.248Z,15.40
2019-05-15T08:14:10.675Z,15.40
2019-05-15T08:16:40.135Z,15.40
2019-05-15T08:19:18.366Z,15.40
2019-05-15T08:21:51.741Z,15.50
2019-05-15T08:24:18.964Z,15.70
2019-05-15T08:26:49.282Z,15.80
2019-05-15T08:29:21.556Z,16.00
2019-05-15T08:31:50.020Z,16.00
2019-05-15T08:34:19.810Z,16.10
2019-05-15T08:36:49.305Z,16.00
2019-05-15T08:39:19.811Z,16.00
2019-05-15T08:41:50.940Z,16.20
2019-05-15T08:44:22.373Z,16.00
2019-05-15T08:46:51.918Z,15.90
2019-05-15T08:49:21.486Z,16.10
2019-05-15T08:51:51.019Z,16.10
2019-05-15T08:54:21.622Z,16.10
2019-05-15T08:56:51.911Z,16.20
2019-05-15T08:59:21.422Z,16.20
2019-05-15T09:01:53.384Z,15.90
2019-05-15T09:04:30.375Z,16.00
2019-05-15T09:07:01.168Z,16.00
2019-05-15T09:09:30.729Z,16.10
2019-05-15T09:12:00.369Z,16.30
2019-05-15T09:14:29.893Z,16.30
2019-05-15T09:16:59.453Z,16.30
2019-05-15T09:19:33.216Z,16.10
2019-05-15T09:22:03.627Z,16.10
2019-05-15T09:24:33.108Z,16.20
2019-05-15T09:27:02.581Z,16.30
2019-05-15T09:29:55.167Z,16.20
2019-05-15T09:32:28.337Z,16.10
2019-05-15T09:34:59.252Z,16.20
2019-05-15T09:37:28.773Z,16.20
2019-05-15T09:39:59.228Z,16.30
2019-05-15T09:42:30.368Z,16.50
2019-05-15T09:45:02.330Z,16.50
2019-05-15T09:47:31.883Z,16.50
2019-05-15T09:50:01.467Z,16.40
2019-05-15T09:52:31.006Z,16.50
2019-05-15T09:55:00.510Z,16.40
2019-05-15T09:57:32.256Z,16.30
2019-05-15T10:00:03.193Z,16.20
2019-05-15T10:02:32.803Z,16.40
2019-05-15T10:05:06.591Z,16.50
2019-05-15T10:07:35.500Z,16.50
2019-05-15T10:10:08.719Z,16.70
2019-05-15T10:12:39.316Z,16.60
2019-05-15T10:15:11.144Z,16.50
2019-05-15T10:17:41.368Z,16.50
2019-05-15T10:20:11.012Z,16.80
2019-05-15T10:22:40.457Z,16.70
2019-05-15T10:25:11.808Z,16.80
2019-05-15T10:27:44.027Z,16.80
2019-05-15T10:30:13.907Z,17.00
2019-05-15T10:32:43.448Z,17.00
2019-05-15T10:35:25.735Z,17.10
2019-05-15T10:37:49.185Z,17.20
2019-05-15T10:40:20.358Z,17.10
2019-05-15T10:42:51.698Z,17.20
2019-05-15T10:45:21.495Z,17.40
2019-05-15T10:47:51.069Z,17.50
2019-05-15T10:50:20.601Z,17.60
2019-05-15T10:52:50.074Z,17.70
2019-05-15T10:55:20.095Z,17.80
2019-05-15T10:57:51.105Z,17.80
2019-05-15T11:00:24.130Z,17.90
2019-05-15T11:02:53.581Z,17.80
2019-05-15T11:05:37.367Z,17.70
2019-05-15T11:07:54.526Z,17.60
2019-05-15T11:10:25.527Z,17.80
2019-05-15T11:12:55.085Z,17.90
2019-05-15T11:15:24.732Z,17.90
2019-05-15T11:17:54.735Z,18.10
2019-05-15T11:20:25.804Z,18.40
2019-05-15T11:22:55.225Z,19.00
2019-05-15T11:25:25.770Z,19.60
2019-05-15T11:27:58.982Z,19.90
2019-05-15T11:30:28.561Z,20.10
2019-05-15T11:32:58.727Z,20.30
2019-05-15T11:35:29.421Z,20.40
2019-05-15T11:38:00.972Z,20.40
2019-05-15T11:40:30.453Z,20.70
2019-05-15T11:43:05.007Z,20.60
2019-05-15T11:45:35.537Z,20.90
2019-05-15T11:48:05.062Z,21.40
2019-05-15T11:50:34.612Z,21.40
2019-05-15T11:53:04.163Z,21.30
2019-05-15T11:55:33.700Z,21.40
2019-05-15T11:58:04.802Z,21.30
2019-05-15T12:00:34.416Z,21.50
2019-05-15T12:03:03.937Z,21.90
2019-05-15T12:05:34.427Z,22.20
2019-05-15T12:08:08.700Z,22.40
2019-05-15T12:10:38.909Z,22.60
2019-05-15T12:13:10.909Z,22.50
2019-05-15T12:15:41.484Z,22.30
2019-05-15T12:18:10.933Z,22.20
2019-05-15T12:20:40.417Z,22.40
2019-05-15T12:23:10.978Z,22.90
2019-05-15T12:25:40.407Z,22.70
2019-05-15T12:28:13.400Z,23.00
2019-05-15T12:30:42.824Z,23.00
2019-05-15T12:33:12.554Z,23.00
2019-05-15T12:35:44.776Z,23.00
2019-05-15T12:38:18.757Z,22.80
2019-05-15T13:01:21.873Z,23.00
2019-05-15T13:03:51.184Z,22.90
2019-05-15T13:06:21.757Z,23.10
2019-05-15T13:08:51.272Z,23.30
2019-05-15T13:11:20.684Z,23.20
2019-05-15T13:13:52.385Z,23.30
2019-05-15T13:16:21.933Z,23.70
2019-05-15T13:18:52.921Z,24.00
2019-05-15T13:21:23.359Z,23.80
2019-05-15T13:23:58.538Z,24.00
2019-05-15T13:26:27.527Z,24.00
2019-05-15T13:28:58.360Z,24.30
2019-05-15T13:31:29.227Z,24.20
2019-05-15T13:34:01.596Z,24.30
2019-05-15T13:36:34.888Z,24.40
2019-05-15T13:39:06.051Z,24.40
2019-05-15T13:41:40.138Z,24.40
2019-05-15T13:44:11.411Z,24.50
2019-05-15T13:46:42.049Z,24.80
2019-05-15T13:49:11.629Z,24.40
2019-05-15T13:51:41.335Z,24.70
2019-05-15T13:54:10.809Z,24.30
2019-05-15T13:56:41.709Z,24.20
2019-05-15T13:59:12.361Z,24.30
2019-05-15T14:01:43.176Z,24.40
2019-05-15T14:04:14.236Z,24.30
2019-05-15T14:06:45.765Z,24.50
2019-05-15T14:09:15.376Z,25.00
2019-05-15T14:11:48.893Z,25.40
2019-05-15T14:14:18.153Z,25.80
2019-05-15T14:16:50.414Z,26.30
2019-05-15T14:19:21.026Z,26.40
2019-05-15T14:21:51.685Z,26.00
2019-05-15T14:24:22.312Z,26.10
2019-05-15T14:26:53.692Z,25.90
2019-05-15T14:29:24.086Z,26.30
2019-05-15T14:31:54.562Z,26.70
2019-05-15T14:34:24.013Z,26.50
2019-05-15T14:36:54.793Z,26.30
2019-05-15T14:39:27.901Z,26.20
2019-05-15T14:41:59.894Z,26.00
2019-05-15T14:44:29.406Z,26.00
2019-05-15T14:46:59.179Z,25.40
2019-05-15T14:49:34.468Z,24.50
2019-05-15T14:52:08.277Z,23.90
2019-05-15T14:54:32.148Z,23.70
2019-05-15T14:57:01.642Z,23.10
2019-05-15T14:59:31.099Z,22.70
2019-05-15T15:02:10.201Z,22.20
2019-05-15T15:04:39.683Z,21.80
2019-05-15T15:07:18.860Z,21.50
2019-05-15T15:09:49.806Z,21.20
2019-05-15T15:12:30.937Z,20.90
2019-05-15T15:18:28.118Z,20.10
2019-05-15T15:20:59.583Z,20.00
2019-05-15T15:23:29.017Z,19.90
2019-05-15T15:25:58.633Z,19.80
2019-05-15T15:28:30.920Z,19.90
2019-05-15T15:31:01.941Z,19.90
2019-05-15T15:33:31.574Z,19.80
2019-05-15T15:36:01.118Z,19.60
2019-05-15T15:38:40.024Z,19.60
2019-05-15T15:41:02.651Z,19.60
2019-05-15T15:43:33.107Z,19.60
2019-05-15T15:46:02.741Z,19.40
2019-05-15T15:48:32.193Z,19.40
2019-05-15T15:51:02.734Z,19.40
2019-05-15T15:53:33.322Z,19.30
2019-05-15T15:56:07.833Z,19.30
2019-05-15T15:59:05.748Z,19.30
2019-05-15T16:02:03.725Z,19.40
2019-05-15T16:04:53.498Z,19.50
2019-05-15T16:07:24.616Z,19.40
2019-05-15T16:09:54.286Z,19.30
2019-05-15T16:12:24.957Z,19.20
2019-05-15T16:14:57.821Z,19.20
2019-05-15T16:17:28.674Z,19.30
2019-05-15T16:19:58.216Z,19.20
2019-05-15T16:22:28.328Z,19.30
2019-05-15T16:25:02.692Z,19.30
2019-05-15T16:27:34.365Z,19.30
2019-05-15T16:30:09.473Z,19.40
2019-05-15T16:32:41.511Z,19.40
2019-05-15T16:35:13.518Z,19.40
2019-05-15T16:37:45.987Z,19.20
2019-05-15T16:40:18.300Z,19.10
2019-05-15T16:42:50.417Z,19.20
2019-05-15T16:45:19.714Z,19.00
2019-05-15T16:47:50.806Z,19.00
2019-05-15T16:50:20.311Z,19.20
2019-05-15T16:52:50.128Z,19.30
2019-05-15T16:55:22.350Z,19.40
2019-05-15T16:57:51.829Z,19.20
2019-05-15T17:00:22.147Z,18.90
2019-05-15T17:03:08.562Z,18.90
2019-05-15T17:05:29.148Z,18.80
2019-05-15T17:07:58.848Z,18.90
2019-05-15T17:10:31.408Z,18.90
2019-05-15T17:13:00.884Z,18.80
2019-05-15T17:15:31.821Z,18.90
2019-05-15T17:18:01.943Z,18.70
2019-05-15T17:20:31.710Z,18.60
2019-05-15T17:23:01.425Z,18.50
2019-05-15T17:25:31.827Z,18.50
2019-05-15T17:28:03.271Z,18.40
2019-05-15T17:30:34.789Z,18.50
2019-05-15T17:33:05.235Z,18.70
2019-05-15T17:35:38.203Z,18.70
2019-05-15T17:38:07.862Z,18.50
2019-05-15T17:40:37.932Z,18.40
2019-05-15T17:43:09.400Z,18.40
2019-05-15T17:45:39.541Z,18.40
2019-05-15T17:48:12.193Z,18.30
2019-05-15T17:50:48.658Z,18.20
2019-05-15T17:53:14.769Z,18.20
2019-05-15T17:55:47.782Z,18.20
2019-05-15T17:58:16.618Z,18.20
2019-05-15T18:00:48.475Z,18.30
2019-05-15T18:03:19.082Z,18.20
2019-05-15T18:05:48.556Z,18.20
2019-05-15T18:08:19.451Z,18.00
2019-05-15T18:10:50.024Z,18.20
2019-05-15T18:13:19.574Z,18.20
2019-05-15T18:15:51.107Z,18.10
2019-05-15T18:18:21.499Z,17.90
2019-05-15T18:20:51.123Z,17.80
2019-05-15T18:23:23.504Z,17.90
2019-05-15T18:25:55.296Z,17.80
2019-05-15T18:28:28.083Z,17.80
2019-05-15T18:30:58.738Z,17.70
2019-05-15T18:33:28.531Z,17.60
2019-05-15T18:36:00.613Z,17.60
2019-05-15T18:38:33.218Z,17.60
2019-05-15T18:41:03.925Z,17.50
2019-05-15T18:43:33.481Z,17.50
2019-05-15T18:46:05.868Z,17.50
2019-05-15T18:48:38.235Z,17.50
2019-05-15T18:51:08.226Z,17.60
2019-05-15T18:53:40.347Z,17.60
2019-05-15T18:56:09.964Z,17.50
2019-05-15T18:58:41.457Z,17.60
2019-05-15T19:01:12.468Z,17.70
2019-05-15T19:03:43.189Z,17.50
2019-05-15T19:06:12.786Z,17.30
2019-05-15T19:08:44.585Z,17.40
2019-05-15T19:11:18.440Z,17.40
2019-05-15T19:13:49.693Z,17.20
2019-05-15T19:16:19.123Z,17.10
2019-05-15T19:18:49.600Z,17.00
2019-05-15T19:21:20.102Z,17.00
2019-05-15T19:23:49.863Z,17.00
2019-05-15T19:26:20.922Z,16.90
2019-05-15T19:28:54.554Z,16.90
2019-05-15T19:31:30.498Z,16.80
2019-05-15T19:33:58.918Z,16.70
2019-05-15T19:36:28.731Z,16.60
2019-05-15T19:38:58.372Z,16.60
2019-05-15T19:41:29.210Z,16.60
2019-05-15T19:44:00.169Z,16.70
2019-05-15T19:46:30.695Z,16.50
2019-05-15T19:49:00.228Z,16.50
2019-05-15T19:51:31.659Z,16.40
2019-05-15T19:54:02.113Z,16.40
2019-05-15T19:56:33.918Z,16.30
2019-05-15T19:59:05.086Z,16.30
2019-05-15T20:01:39.585Z,16.30
2019-05-15T20:04:13.268Z,16.20
2019-05-15T20:06:42.876Z,16.20
2019-05-15T20:09:13.604Z,16.10
2019-05-15T20:11:43.254Z,16.10
2019-05-15T20:14:13.497Z,16.00
2019-05-15T20:16:44.519Z,15.90
2019-05-15T20:19:14.571Z,15.90
2019-05-15T20:21:44.099Z,15.90
2019-05-15T20:24:18.054Z,15.80
2019-05-15T20:26:48.713Z,15.80
2019-05-15T20:29:22.212Z,15.80
2019-05-15T20:31:55.908Z,15.70
2019-05-15T20:34:31.668Z,15.70
2019-05-15T20:37:01.150Z,15.70
2019-05-15T20:39:33.883Z,15.70
2019-05-15T20:42:03.400Z,15.70
2019-05-15T20:44:37.846Z,15.70
2019-05-15T20:47:08.289Z,15.60
2019-05-15T20:49:39.457Z,15.60
2019-05-15T20:52:09.468Z,15.50
2019-05-15T20:54:43.993Z,15.60
2019-05-15T20:57:14.628Z,15.70
2019-05-15T20:59:44.018Z,15.60
2019-05-15T21:02:13.728Z,15.60
2019-05-15T21:04:43.271Z,15.50
2019-05-15T21:07:12.752Z,15.30
2019-05-15T21:09:43.842Z,15.30
2019-05-15T21:12:14.967Z,15.40
2019-05-15T21:14:44.783Z,15.40
2019-05-15T21:17:16.021Z,15.30
2019-05-15T21:19:50.091Z,15.20
2019-05-15T21:22:20.528Z,15.10
2019-05-15T21:24:50.021Z,15.10
2019-05-15T21:27:24.061Z,15.00
2019-05-15T21:29:51.524Z,15.00
2019-05-15T21:32:21.282Z,15.10
2019-05-15T21:34:51.911Z,15.10
2019-05-15T21:37:22.367Z,15.10
2019-05-15T21:39:58.975Z,15.00
2019-05-15T21:42:28.596Z,14.80
2019-05-15T21:44:59.587Z,14.80
2019-05-15T21:47:29.209Z,14.70
2019-05-15T21:49:59.110Z,14.70
2019-05-15T21:52:29.387Z,14.60
2019-05-15T21:55:01.961Z,14.60
2019-05-15T21:57:35.948Z,14.50
2019-05-15T22:00:01.087Z,14.60
2019-05-15T22:02:31.281Z,14.60
2019-05-15T22:05:00.718Z,14.50
2019-05-15T22:07:31.736Z,14.50
2019-05-15T22:10:02.485Z,14.50
2019-05-15T22:12:32.301Z,14.50
2019-05-15T22:15:01.742Z,14.40
2019-05-15T22:17:32.893Z,14.40
2019-05-15T22:20:08.454Z,14.30
2019-05-15T22:22:37.114Z,14.40
2019-05-15T22:25:15.479Z,14.40
2019-05-15T22:27:49.377Z,14.40
2019-05-15T22:30:23.675Z,14.30
2019-05-15T22:32:58.471Z,14.30
2019-05-15T22:35:30.258Z,14.30
2019-05-15T22:38:04.836Z,14.20
2019-05-15T22:41:04.091Z,14.20
2019-05-15T22:47:01.914Z,14.20
2019-05-15T22:49:43.241Z,14.20
2019-05-15T22:52:18.436Z,14.10
2019-05-15T22:54:47.988Z,14.10
2019-05-15T22:57:18.448Z,14.10
2019-05-15T22:59:49.614Z,14.00
2019-05-15T23:02:19.883Z,14.00
2019-05-15T23:04:49.259Z,13.90
2019-05-15T23:07:19.017Z,13.80
2019-05-15T23:09:49.047Z,13.80
2019-05-15T23:12:18.622Z,13.80
2019-05-15T23:14:48.536Z,13.80
2019-05-15T23:17:19.184Z,13.80
2019-05-15T23:19:48.706Z,13.70
2019-05-15T23:22:18.626Z,13.80
2019-05-15T23:24:48.353Z,13.70
2019-05-15T23:27:19.372Z,13.70
2019-05-15T23:29:54.849Z,13.90
2019-05-15T23:32:24.490Z,13.80
2019-05-15T23:35:09.147Z,13.70
2019-05-15T23:37:41.423Z,13.70
2019-05-15T23:40:11.983Z,13.70
2019-05-15T23:42:41.490Z,13.60
2019-05-15T23:45:14.869Z,13.60
2019-05-15T23:47:44.338Z,13.50
2019-05-15T23:50:13.929Z,13.50
2019-05-15T23:52:48.678Z,13.40
2019-05-15T23:55:20.901Z,13.40
2019-05-15T23:57:50.399Z,13.40
